CZMT

Masset Airport

Masset, , Canada
METAR CZMT 220200Z 15018G34KT 120V180 10SM -RA OVC020TCU 05/04 A2969 RMK TCU8 LAST STFD OBS/NEXT 221500 UTC PRESFR SLP054
Observed Flight Rules
Jan-22 @ 02:00 UTC (3 hours ago) Marginal Visual Flight Rules
Wind Visibility Clouds Conditions
150° at 18 knots
 Gusting to 34 knots
10 miles
  • Overcast at 2,000' AGL
  • Light Rain
Temperatures Readings
Current 5°C / 41°F
Dewpoint 4°C / 39°F
Humidity 93%
Altimeter 29.69" Hg
Pressure 1005.4 hPa
Elevation 8
METAR CZMT 220200Z 15018G34KT 120V180 10SM -RA OVC020TCU 05/04 A2969 RMK TCU8 LAST STFD OBS/NEXT 221500 UTC PRESFR SLP054
Observed Flight Rules
Jan-22 @ 02:00 UTC
(3 hours ago)
MVFR
Wind Visibility
150° at 18 knots
 Gusting to 34 knots
10 miles
Clouds
  • Overcast at 2,000' AGL
Conditions
  • Light Rain
Temperature Dewpoint
5°C / 41°F 4°C / 39°F
Humidity Altimeter Pressure
93% 29.69" Hg 1005.4 hPa